Latest Weather Observations for Eucla

IDW60801

Issued at 9:05 pm WST Thursday 30 October 2014 (issued every 30 minutes, with the page automatically refreshed every 10 minutes)

About weather observations | Map of weather stations | Latest weather observations for WA | Other Formats
Station Details ID: 011003 Name: EUCLA Lat: -31.68 Lon: 128.90 Height: 93.1 m
Data from the previous 72 hours. | See also: Recent months at Eucla
Date/Time
WST
Temp
°C
App
Temp
°C
Dew
Point
Rel
Hum
%
Delta-T
°C
Wind Press
QNH
hPa
Press
MSL
hPa
Rain
since 9 am
mm
Dir
 
Spd
km/h
Gust
km/h
Spd
kts
Gust
kts
30/09:00pm 17.5 15.9 16.0 91 0.9 SW 19 32 10 17 1010.4 1010.2 4.6
30/08:30pm 18.9 16.4 15.2 79 2.2 WSW 22 33 12 18 1011.7 1011.5 4.4
30/08:05pm 18.7 15.2 15.4 81 1.9 W 28 48 15 26 1011.2 1011.0 4.4
30/08:03pm 18.3 15.5 15.4 83 1.7 W 24 39 13 21 1010.8 1010.6 4.4
30/08:00pm 17.7 18.1 15.3 86 1.4 SSW 7 15 4 8 1008.8 1008.6 4.4
30/07:30pm 17.0 18.6 15.0 88 1.2 SW 0 0 0 0 1007.6 1007.5 4.4
30/07:00pm 18.0 18.1 15.4 85 1.5 E 9 11 5 6 1007.3 1007.2 4.4
30/06:30pm 18.3 18.2 16.1 87 1.3 E 11 15 6 8 1007.3 1007.2 4.4
30/06:00pm 19.1 18.1 16.5 85 1.6 SE 17 24 9 13 1007.0 1006.9 4.4
30/05:30pm 20.0 20.2 15.8 77 2.5 SW 9 15 5 8 1008.3 1008.1 4.4
30/05:00pm 24.1 23.0 11.8 46 7.0 S 9 13 5 7 1008.2 1008.0 0.0
30/04:30pm 25.5 23.0 12.4 44 7.6 SSW 17 28 9 15 1007.7 1007.6 0.0
30/04:00pm 26.0 23.5 9.8 36 9.0 E 13 22 7 12 1007.6 1007.5 0.0
30/03:30pm 27.7 24.3 9.0 31 10.3 ESE 17 24 9 13 1007.6 1007.5 0.0
30/03:00pm 28.6 25.4 8.3 28 11.1 ESE 15 20 8 11 1008.0 1007.8 0.0
30/02:30pm 30.1 26.5 8.5 26 12.0 ESE 17 22 9 12 1007.9 1007.7 0.0
30/02:00pm 30.9 27.9 9.2 26 12.2 SE 15 20 8 11 1008.2 1008.0 0.0
30/01:30pm 31.5 28.7 8.5 24 12.8 SE 13 15 7 8 1008.8 1008.6 0.0
30/01:00pm 31.6 30.0 8.6 24 12.9 SE 7 13 4 7 1009.2 1009.0 0.0
30/12:30pm 30.5 28.5 7.0 23 12.7 ENE 7 11 4 6 1009.6 1009.4 0.0
30/12:00pm 30.6 28.5 8.3 25 12.4 NE 9 13 5 7 1010.0 1009.8 0.0
30/11:30am 30.0 26.5 5.3 21 13.0 W 13 19 7 10 1010.3 1010.1 0.0
30/11:00am 30.2 26.2 4.8 20 13.3 N 15 19 8 10 1010.2 1010.0 0.0
30/10:30am 30.1 26.1 4.7 20 13.2 N 15 20 8 11 1010.7 1010.5 0.0
30/10:00am 29.9 24.9 4.5 20 13.2 NNW 20 28 11 15 1011.3 1011.1 0.0
30/09:30am 27.9 22.9 3.6 21 12.2 N 19 28 10 15 1011.9 1011.7 0.0
30/09:00am 27.6 20.7 2.6 20 12.3 N 28 37 15 20 1011.7 1011.5 0.0
30/08:30am 27.4 20.2 3.2 21 12.1 NNE 30 39 16 21 1011.7 1011.5 0.0
30/08:00am 24.6 17.8 3.3 25 10.4 NNE 28 37 15 20 1011.7 1011.5 0.0
30/07:30am 23.5 16.8 3.4 27 9.8 NNE 28 37 15 20 1012.1 1011.9 0.0
30/07:00am 22.0 16.0 3.6 30 8.9 N 24 35 13 19 1012.2 1012.0 0.0
30/06:30am 21.1 15.3 4.2 33 8.2 NNE 24 37 13 20 1012.1 1011.9 0.0
30/06:00am 19.9 14.1 4.4 36 7.5 N 24 35 13 19 1012.1 1011.9 0.0
30/05:30am 18.5 12.8 4.7 40 6.6 N 24 33 13 18 1012.0 1011.8 0.0
30/05:00am 18.5 12.8 4.7 40 6.7 NNE 24 33 13 18 1012.0 1011.8 0.0
30/04:30am 18.5 13.2 5.0 41 6.5 NNE 22 35 12 19 1011.7 1011.5 0.0
30/04:00am 18.3 13.0 5.2 42 6.4 N 22 33 12 18 1011.6 1011.4 0.0
30/03:30am 18.3 13.1 5.5 43 6.3 NNE 22 32 12 17 1011.5 1011.3 0.0
30/03:00am 18.3 12.9 6.2 45 6.0 NNE 24 33 13 18 1011.7 1011.5 0.0
30/02:30am 18.5 12.6 6.0 44 6.2 NNE 26 37 14 20 1011.8 1011.6 0.0
30/02:00am 18.3 12.6 6.5 46 5.9 NNE 26 37 14 20 1012.1 1011.9 0.0
30/01:30am 17.9 13.0 6.7 48 5.6 NNE 22 32 12 17 1012.5 1012.3 0.0
30/01:00am 17.6 12.9 7.6 52 5.1 NNE 22 30 12 16 1012.7 1012.5 0.0
30/12:30am 17.6 12.9 7.9 53 4.9 NNE 22 32 12 17 1012.9 1012.7 0.0
30/12:00am 17.8 13.0 7.5 51 5.2 NE 22 32 12 17 1013.2 1013.0 0.0
 
Date/Time
WST
Temp
°C
App
Temp
°C
Dew
Point
Rel
Hum
%
Delta-T
°C
Wind Press
QNH
hPa
Press
MSL
hPa
Rain
since 9 am
mm
Dir
 
Spd
km/h
Gust
km/h
Spd
kts
Gust
kts
29/11:30pm 17.6 13.3 7.1 50 5.3 NE 19 28 10 15 1013.4 1013.2 0.0
29/11:00pm 17.7 13.7 6.6 48 5.5 NE 17 22 9 12 1014.0 1013.8 0.0
29/10:30pm 18.2 14.2 6.7 47 5.8 NE 17 22 9 12 1014.3 1014.1 0.0
29/10:00pm 18.8 15.2 6.6 45 6.1 NE 15 26 8 14 1014.8 1014.6 0.0
29/09:30pm 19.1 15.1 6.6 44 6.3 ENE 17 26 9 14 1014.8 1014.6 0.0
29/09:00pm 19.4 14.9 6.2 42 6.6 ENE 19 28 10 15 1015.1 1014.9 0.0
29/08:30pm 19.7 15.1 5.7 40 6.9 ENE 19 28 10 15 1014.9 1014.7 0.0
29/08:00pm 19.8 15.2 5.5 39 7.1 ENE 19 26 10 14 1015.0 1014.8 0.0
29/07:30pm 20.0 15.6 4.9 37 7.4 ENE 17 24 9 13 1015.3 1015.2 0.0
29/07:00pm 20.1 15.0 3.3 33 8.0 ENE 19 30 10 16 1014.9 1014.7 0.0
29/06:30pm 20.4 15.3 3.2 32 8.2 ENE 19 28 10 15 1015.1 1014.9 0.0
29/06:00pm 20.3 15.3 4.8 36 7.6 E 20 30 11 16 1014.9 1014.7 0.0
29/05:30pm 20.5 16.0 6.8 41 7.0 E 20 32 11 17 1014.6 1014.4 0.0
29/05:00pm 21.3 17.2 7.9 42 7.0 E 19 32 10 17 1014.4 1014.2 0.0
29/04:30pm 21.3 16.8 8.6 44 6.7 E 22 30 12 16 1014.4 1014.2 0.0
29/04:00pm 21.7 18.2 10.2 48 6.3 E 19 28 10 15 1014.4 1014.2 0.0
29/03:30pm 21.3 18.1 11.9 55 5.3 E 20 33 11 18 1014.2 1014.0 0.0
29/03:00pm 19.5 16.9 13.9 70 3.2 ESE 20 30 11 16 1014.3 1014.1 0.0
29/02:30pm 19.5 17.3 14.5 73 2.9 ESE 19 30 10 16 1014.5 1014.3 0.0
29/02:00pm 21.5 18.1 13.7 61 4.5 ESE 24 32 13 17 1014.5 1014.3 0.0
29/01:30pm 22.2 19.3 13.0 56 5.3 ESE 20 30 11 16 1014.5 1014.3 0.0
29/01:00pm 22.1 19.3 13.2 57 5.1 ESE 20 30 11 16 1014.9 1014.7 0.0
29/12:30pm 22.9 20.4 12.2 51 6.1 SE 17 24 9 13 1015.2 1015.1 0.0
29/12:00pm 23.0 20.3 11.7 49 6.4 SE 17 24 9 13 1015.5 1015.4 0.0
29/11:30am 23.1 21.0 13.6 55 5.5 ESE 17 28 9 15 1015.6 1015.5 0.0
29/11:00am 22.8 20.5 13.0 54 5.6 ESE 17 28 9 15 1015.8 1015.7 0.0
29/10:30am 22.8 19.8 12.1 51 6.1 SE 19 26 10 14 1016.2 1016.1 0.0
29/10:00am 23.4 20.9 12.4 50 6.3 SE 17 24 9 13 1016.7 1016.6 0.0
29/09:30am 23.1 20.6 11.2 47 6.7 SE 15 20 8 11 1017.0 1016.9 0.0
29/09:00am 22.8 20.4 9.9 44 7.0 E 13 19 7 10 1017.4 1017.3 0.0
29/08:30am 24.2 21.4 6.9 33 9.0 NE 11 19 6 10 1017.8 1017.7 0.0
29/08:00am 22.2 19.0 8.3 41 7.3 NE 15 20 8 11 1018.0 1017.9 0.0
29/07:30am 19.8 16.5 9.4 51 5.5 NE 17 24 9 13 1018.1 1018.0 0.0
29/07:00am 17.3 14.1 10.0 62 3.9 NNE 17 26 9 14 1018.0 1017.9 0.0
29/06:30am 15.4 11.7 10.2 71 2.7 NE 20 32 11 17 1017.9 1017.8 0.0
29/06:00am 13.9 10.5 10.7 81 1.7 NNE 19 28 10 15 1018.1 1018.0 0.0
29/05:30am 12.8 9.9 10.9 88 1.0 NNE 17 26 9 14 1018.1 1018.0 0.0
29/05:00am 11.8 8.8 10.5 92 0.7 NNE 17 24 9 13 1018.1 1018.0 0.0
29/04:30am 11.2 8.0 10.1 93 0.6 NNE 17 26 9 14 1017.8 1017.7 0.0
29/04:00am 11.0 8.2 9.9 93 0.6 NNE 15 19 8 10 1017.9 1017.8 0.0
29/03:30am 11.1 8.4 10.2 94 0.5 NNE 15 20 8 11 1017.9 1017.8 0.0
29/03:00am 11.2 8.4 10.1 93 0.6 NNE 15 20 8 11 1017.8 1017.7 0.0
29/02:30am 11.4 8.7 10.3 93 0.6 NE 15 20 8 11 1017.7 1017.6 0.0
29/02:00am 11.3 9.0 10.4 94 0.5 NE 13 19 7 10 1017.7 1017.6 0.0
29/01:30am 11.2 8.9 10.3 94 0.5 NE 13 15 7 8 1017.7 1017.6 0.0
29/01:00am 11.4 9.4 10.3 93 0.6 NE 11 13 6 7 1017.9 1017.8 0.0
29/12:30am 12.7 10.9 10.9 89 0.9 ENE 11 13 6 7 1018.0 1017.9 0.0
29/12:00am 14.0 12.5 11.9 87 1.1 E 11 17 6 9 1018.2 1018.1 0.0
 
Date/Time
WST
Temp
°C
App
Temp
°C
Dew
Point
Rel
Hum
%
Delta-T
°C
Wind Press
QNH
hPa
Press
MSL
hPa
Rain
since 9 am
mm
Dir
 
Spd
km/h
Gust
km/h
Spd
kts
Gust
kts
28/11:30pm 14.1 12.6 12.0 87 1.1 E 11 15 6 8 1018.5 1018.4 0.0
28/11:00pm 13.5 11.9 11.7 89 1.0 E 11 17 6 9 1018.9 1018.8 0.0
28/10:30pm 13.2 11.9 11.1 87 1.1 ENE 9 13 5 7 1019.2 1019.0 0.0
28/10:00pm 13.8 12.1 11.3 85 1.3 E 11 15 6 8 1019.3 1019.1 0.0
28/09:30pm 14.4 12.4 11.6 83 1.5 E 13 17 7 9 1019.5 1019.3 0.0
28/09:00pm 14.7 12.3 11.5 81 1.7 E 15 22 8 12 1019.6 1019.4 0.0
28/08:30pm 14.8 12.5 11.6 81 1.7 E 15 20 8 11 1019.9 1019.7 0.0
28/08:00pm 15.0 12.6 11.4 79 1.9 E 15 20 8 11 1020.0 1019.8 0.0
28/07:30pm 15.1 12.3 11.3 78 2.0 E 17 26 9 14 1020.0 1019.8 0.0
28/07:00pm 15.3 12.9 11.5 78 2.0 E 15 24 8 13 1019.9 1019.7 0.0
28/06:30pm 15.3 12.5 11.3 77 2.2 E 17 32 9 17 1019.5 1019.3 0.0
28/06:00pm 15.6 12.4 11.2 75 2.4 ESE 19 30 10 16 1019.3 1019.1 0.0
28/05:30pm 15.9 12.1 11.1 73 2.6 ESE 22 32 12 17 1019.2 1019.0 0.0
28/05:00pm 16.6 12.8 11.3 71 2.9 ESE 22 33 12 18 1019.2 1019.0 0.0
28/04:30pm 17.3 13.2 11.3 68 3.3 ESE 24 35 13 19 1019.3 1019.1 0.0
28/04:00pm 17.6 13.9 11.4 67 3.4 ESE 22 33 12 18 1019.3 1019.1 0.0
28/03:30pm 18.0 14.2 11.3 65 3.7 ESE 22 33 12 18 1019.4 1019.2 0.0
28/03:00pm 18.4 14.2 11.2 63 3.9 ESE 24 33 13 18 1019.3 1019.1 0.0
28/02:30pm 18.9 14.7 11.2 61 4.2 SE 24 35 13 19 1019.4 1019.2 0.0
28/02:00pm 18.8 14.6 11.1 61 4.2 SE 24 35 13 19 1019.7 1019.5 0.0
28/01:30pm 18.9 15.5 11.2 61 4.2 SE 20 33 11 18 1020.0 1019.8 0.0
28/01:00pm 20.3 16.7 11.8 58 4.7 SE 22 32 12 17 1020.4 1020.2 0.0
28/12:30pm 19.7 16.5 11.2 58 4.7 SE 19 28 10 15 1020.7 1020.5 0.0
28/12:00pm 20.1 16.9 11.3 57 4.8 SE 19 26 10 14 1021.1 1020.9 0.0
28/11:30am 19.6 16.6 10.6 56 4.9 SE 17 28 9 15 1021.2 1021.0 0.0
28/11:00am 20.2 17.2 10.6 54 5.2 SE 17 26 9 14 1021.4 1021.2 0.0
28/10:30am 20.9 18.0 11.0 53 5.5 SE 17 26 9 14 1021.6 1021.4 0.0
28/10:00am 20.1 17.0 10.2 53 5.3 ESE 17 24 9 13 1022.1 1021.9 0.0
28/09:30am 19.6 16.6 10.6 56 4.9 ESE 17 22 9 12 1022.5 1022.3 0.0
28/09:00am 19.2 16.5 10.5 57 4.7 SE 15 20 8 11 1022.6 1022.4 0.0
28/08:30am 18.6 16.3 10.4 59 4.4 ESE 13 20 7 11 1022.7 1022.5 0.0
28/08:00am 18.2 15.8 10.1 59 4.3 ESE 13 19 7 10 1022.7 1022.5 0.0
28/07:30am 17.9 15.9 10.3 61 4.1 ESE 11 17 6 9 1022.3 1022.1 0.0
28/07:00am 16.9 15.3 10.3 65 3.5 ENE 9 15 5 8 1022.3 1022.1 0.0
28/06:30am 14.7 13.0 9.9 73 2.5 NNE 9 13 5 7 1022.3 1022.1 0.0
28/06:00am 12.1 10.3 9.3 83 1.4 N 9 13 5 7 1022.3 1022.1 0.0
28/05:30am 9.4 7.3 8.3 93 0.5 N 9 11 5 6 1022.1 1021.9 0.0
28/05:00am 7.5 5.1 6.9 96 0.3 N 9 11 5 6 1021.8 1021.6 0.0
28/04:30am 7.5 4.7 6.9 96 0.3 NNE 11 11 6 6 1021.5 1021.3 0.0
28/04:00am 7.1 4.2 6.5 96 0.3 N 11 13 6 7 1021.2 1021.0 0.0
28/03:30am 6.8 3.8 6.2 96 0.3 N 11 11 6 6 1021.1 1020.9 0.0
28/03:00am 7.0 4.4 6.3 95 0.3 N 9 11 5 6 1021.1 1020.9 0.0
28/02:30am 7.7 5.3 6.8 94 0.4 NNE 9 11 5 6 1021.0 1020.8 0.0
28/02:00am 8.1 5.7 7.2 94 0.4 NNE 9 11 5 6 1021.1 1020.9 0.0
28/01:30am 8.7 6.4 7.6 93 0.5 NNE 9 11 5 6 1021.3 1021.1 0.0
28/01:00am 8.9 6.6 7.5 91 0.7 NE 9 9 5 5 1021.4 1021.2 0.0
28/12:30am 9.1 6.9 7.7 91 0.7 NE 9 11 5 6 1021.6 1021.4 0.0
28/12:00am 8.8 6.4 7.1 89 0.8 NE 9 11 5 6 1021.9 1021.7 0.0
 
Date/Time
WST
Temp
°C
App
Temp
°C
Dew
Point
Rel
Hum
%
Delta-T
°C
Wind Press
QNH
hPa
Press
MSL
hPa
Rain
since 9 am
mm
Dir
 
Spd
km/h
Gust
km/h
Spd
kts
Gust
kts
27/11:30pm 10.0 7.8 7.9 87 1.0 ENE 9 11 5 6 1022.3 1022.1 0.0
27/11:00pm 11.2 9.1 8.4 83 1.4 E 9 11 5 6 1022.4 1022.2 0.0
27/10:30pm 10.7 8.5 7.9 83 1.4 ENE 9 11 5 6 1022.5 1022.3 0.0
27/10:00pm 11.0 8.8 7.9 81 1.5 ENE 9 11 5 6 1022.4 1022.2 0.0
27/09:30pm 11.9 9.8 8.2 78 1.8 E 9 11 5 6 1022.6 1022.4 0.0

Other Formats:

Comma delimited format used in spreadsheet applications
http://www.bom.gov.au/fwo/IDW60801/IDW60801.94647.axf

JavaScript Object Notation format (JSON) in row-major order
http://www.bom.gov.au/fwo/IDW60801/IDW60801.94647.json